createdAt,value
2019-05-03T00:01:14.507Z,9.10
2019-05-03T00:03:45.043Z,9.10
2019-05-03T00:06:15.400Z,9.20
2019-05-03T00:08:45.824Z,9.20
2019-05-03T00:11:16.235Z,9.20
2019-05-03T00:13:46.855Z,9.20
2019-05-03T00:16:25.923Z,9.10
2019-05-03T00:18:56.763Z,9.10
2019-05-03T00:21:27.170Z,9.10
2019-05-03T00:23:58.563Z,9.00
2019-05-03T00:26:28.979Z,8.90
2019-05-03T00:28:59.472Z,8.80
2019-05-03T00:31:31.784Z,8.90
2019-05-03T00:34:06.339Z,8.80
2019-05-03T00:36:42.127Z,8.70
2019-05-03T00:39:21.727Z,8.60
2019-05-03T00:41:52.188Z,8.50
2019-05-03T00:44:22.602Z,8.50
2019-05-03T00:46:52.939Z,8.40
2019-05-03T00:49:23.319Z,8.30
2019-05-03T00:51:53.715Z,8.20
2019-05-03T00:54:24.071Z,8.20
2019-05-03T00:56:55.548Z,8.20
2019-05-03T00:59:25.974Z,8.10
2019-05-03T01:01:56.379Z,8.00
2019-05-03T01:04:26.631Z,7.90
2019-05-03T01:06:56.939Z,7.90
2019-05-03T01:09:27.843Z,7.90
2019-05-03T01:11:58.211Z,7.90
2019-05-03T01:14:33.219Z,7.90
2019-05-03T01:17:11.784Z,7.90
2019-05-03T01:19:42.664Z,7.80
2019-05-03T01:22:13.236Z,7.90
2019-05-03T01:24:43.596Z,7.80
2019-05-03T01:27:14.511Z,7.70
2019-05-03T01:29:44.928Z,7.90
2019-05-03T01:32:15.344Z,8.00
2019-05-03T01:34:45.712Z,8.00
2019-05-03T01:37:16.055Z,8.10
2019-05-03T01:39:46.403Z,8.00
2019-05-03T01:42:16.727Z,8.10
2019-05-03T01:44:47.099Z,8.10
2019-05-03T01:47:23.967Z,8.20
2019-05-03T01:52:41.833Z,8.30
2019-05-03T01:55:15.844Z,8.30
2019-05-03T01:57:45.308Z,8.30
2019-05-03T02:00:22.522Z,8.30
2019-05-03T02:03:01.649Z,8.30
2019-05-03T02:05:49.620Z,8.30
2019-05-03T02:08:21.897Z,8.40
2019-05-03T02:10:52.271Z,8.40
2019-05-03T02:13:23.031Z,8.50
2019-05-03T02:15:53.407Z,8.40
2019-05-03T02:18:23.696Z,8.50
2019-05-03T02:20:54.069Z,8.50
2019-05-03T02:23:24.445Z,8.60
2019-05-03T02:25:56.772Z,8.60
2019-05-03T02:28:26.951Z,8.50
2019-05-03T02:30:57.380Z,8.50
2019-05-03T02:33:28.692Z,8.60
2019-05-03T02:35:58.980Z,8.50
2019-05-03T02:38:29.336Z,8.50
2019-05-03T02:41:02.683Z,8.50
2019-05-03T02:43:48.609Z,8.50
2019-05-03T02:46:38.094Z,8.30
2019-05-03T02:49:27.921Z,8.30
2019-05-03T02:51:58.350Z,8.30
2019-05-03T02:54:28.777Z,8.30
2019-05-03T02:56:59.263Z,8.40
2019-05-03T02:59:29.605Z,8.40
2019-05-03T03:02:00.120Z,8.50
2019-05-03T03:04:36.370Z,8.50
2019-05-03T03:07:15.188Z,8.60
2019-05-03T03:09:46.818Z,8.60
2019-05-03T03:12:18.436Z,8.60
2019-05-03T03:14:50.125Z,8.60
2019-05-03T03:17:25.441Z,8.60
2019-05-03T03:19:57.323Z,8.60
2019-05-03T03:22:30.901Z,8.70
2019-05-03T03:25:05.302Z,8.70
2019-05-03T03:27:45.189Z,8.70
2019-05-03T03:30:21.057Z,8.70
2019-05-03T03:32:51.237Z,8.70
2019-05-03T03:35:29.109Z,8.70
2019-05-03T03:37:56.735Z,8.70
2019-05-03T03:40:28.702Z,8.70
2019-05-03T03:43:08.465Z,8.70
2019-05-03T03:45:39.686Z,8.60
2019-05-03T03:48:11.237Z,8.60
2019-05-03T03:50:45.708Z,8.60
2019-05-03T03:53:17.452Z,8.60
2019-05-03T03:55:48.615Z,8.60
2019-05-03T03:58:22.901Z,8.60
2019-05-03T04:00:51.146Z,8.50
2019-05-03T04:03:22.424Z,8.50
2019-05-03T04:05:55.392Z,8.50
2019-05-03T04:08:25.744Z,8.50
2019-05-03T04:10:56.176Z,8.40
2019-05-03T04:13:27.202Z,8.40
2019-05-03T04:16:20.738Z,8.40
2019-05-03T04:19:05.721Z,8.40
2019-05-03T04:21:37.712Z,8.40
2019-05-03T04:24:08.332Z,8.50
2019-05-03T04:26:38.851Z,8.50
2019-05-03T04:29:19.728Z,8.50
2019-05-03T04:31:50.062Z,8.40
2019-05-03T04:34:21.457Z,8.40
2019-05-03T04:36:51.893Z,8.30
2019-05-03T04:39:25.357Z,8.20
2019-05-03T04:41:55.972Z,8.20
2019-05-03T04:44:38.100Z,8.20
2019-05-03T04:49:51.439Z,8.30
2019-05-03T04:52:21.940Z,8.30
2019-05-03T04:54:56.331Z,8.30
2019-05-03T04:57:39.995Z,8.20
2019-05-03T04:59:58.681Z,7.90
2019-05-03T05:02:29.789Z,7.80
2019-05-03T05:05:00.197Z,7.90
2019-05-03T05:07:36.334Z,7.80
2019-05-03T05:10:06.889Z,7.80
2019-05-03T05:12:37.325Z,7.90
2019-05-03T05:15:07.881Z,8.00
2019-05-03T05:17:51.115Z,8.10
2019-05-03T05:20:28.416Z,8.10
2019-05-03T05:22:58.885Z,8.20
2019-05-03T05:25:31.997Z,8.30
2019-05-03T05:28:18.100Z,8.30
2019-05-03T05:30:48.509Z,8.40
2019-05-03T05:33:21.966Z,8.60
2019-05-03T05:35:54.513Z,8.60
2019-05-03T05:38:25.466Z,8.60
2019-05-03T05:40:56.029Z,8.70
2019-05-03T05:43:26.380Z,8.90
2019-05-03T05:45:58.861Z,9.00
2019-05-03T05:48:34.958Z,9.00
2019-05-03T05:51:05.358Z,9.10
2019-05-03T05:53:35.973Z,9.20
2019-05-03T05:56:15.989Z,9.30
2019-05-03T05:58:51.268Z,9.30
2019-05-03T06:01:30.833Z,9.30
2019-05-03T06:04:01.571Z,9.40
2019-05-03T06:06:57.375Z,9.50
2019-05-03T06:09:34.950Z,9.60
2019-05-03T06:12:12.305Z,9.80
2019-05-03T06:14:46.429Z,9.80
2019-05-03T06:17:36.265Z,9.90
2019-05-03T06:20:15.646Z,9.90
2019-05-03T06:22:54.865Z,10.00
2019-05-03T06:25:35.479Z,9.80
2019-05-03T06:28:18.418Z,9.80
2019-05-03T06:30:48.413Z,9.70
2019-05-03T06:33:18.688Z,9.80
2019-05-03T06:35:48.933Z,9.80
2019-05-03T06:38:19.278Z,9.80
2019-05-03T06:40:50.553Z,9.90
2019-05-03T06:43:20.897Z,10.00
2019-05-03T06:45:51.237Z,10.00
2019-05-03T06:48:22.312Z,10.20
2019-05-03T06:50:55.676Z,10.50
2019-05-03T06:53:25.596Z,10.90
2019-05-03T06:55:56.005Z,11.60
2019-05-03T06:58:33.072Z,12.40
2019-05-03T07:01:11.337Z,12.70
2019-05-03T07:04:12.834Z,12.80
2019-05-03T07:06:55.055Z,12.90
2019-05-03T07:09:30.061Z,12.80
2019-05-03T07:12:00.418Z,12.70
2019-05-03T07:14:35.010Z,12.80
2019-05-03T07:17:06.717Z,13.00
2019-05-03T07:19:37.081Z,13.20
2019-05-03T07:22:07.505Z,13.40
2019-05-03T07:24:40.778Z,13.50
2019-05-03T07:27:09.801Z,13.50
2019-05-03T07:29:40.166Z,13.50
2019-05-03T07:32:10.565Z,13.50
2019-05-03T07:34:41.010Z,13.30
2019-05-03T07:37:11.385Z,13.50
2019-05-03T07:39:41.724Z,13.60
2019-05-03T07:42:12.675Z,14.00
2019-05-03T07:44:44.830Z,13.80
2019-05-03T07:47:15.053Z,13.30
2019-05-03T07:49:45.480Z,12.80
2019-05-03T07:52:15.757Z,12.70
2019-05-03T07:54:46.101Z,12.30
2019-05-03T07:57:30.458Z,12.20
2019-05-03T08:02:39.106Z,12.10
2019-05-03T08:05:09.606Z,12.10
2019-05-03T08:07:39.948Z,12.00
2019-05-03T08:10:10.353Z,11.90
2019-05-03T08:12:40.822Z,11.80
2019-05-03T08:15:11.273Z,11.70
2019-05-03T08:17:41.689Z,11.50
2019-05-03T08:20:14.297Z,11.30
2019-05-03T08:22:44.811Z,11.10
2019-05-03T08:25:15.337Z,10.90
2019-05-03T08:27:45.702Z,11.10
2019-05-03T08:30:20.699Z,11.30
2019-05-03T08:33:14.733Z,11.80
2019-05-03T08:35:46.782Z,12.00
2019-05-03T08:38:17.049Z,12.40
2019-05-03T08:40:48.341Z,12.70
2019-05-03T08:43:18.690Z,13.20
2019-05-03T08:45:49.073Z,13.60
2019-05-03T08:48:19.514Z,13.70
2019-05-03T08:50:49.925Z,13.70
2019-05-03T08:53:20.258Z,14.10
2019-05-03T08:55:50.633Z,14.20
2019-05-03T08:58:20.902Z,14.00
2019-05-03T09:00:51.357Z,14.30
2019-05-03T09:03:21.733Z,14.60
2019-05-03T09:05:52.736Z,14.80
2019-05-03T09:08:24.897Z,14.90
2019-05-03T09:11:04.915Z,14.70
2019-05-03T09:14:05.882Z,14.60
2019-05-03T09:16:36.278Z,14.70
2019-05-03T09:19:06.805Z,14.30
2019-05-03T09:21:37.246Z,13.90
2019-05-03T09:24:07.949Z,13.70
2019-05-03T09:26:38.273Z,13.80
2019-05-03T09:29:08.753Z,13.90
2019-05-03T09:31:39.490Z,14.10
2019-05-03T09:34:12.145Z,14.00
2019-05-03T09:36:42.497Z,14.10
2019-05-03T09:39:14.806Z,14.20
2019-05-03T09:41:45.143Z,14.40
2019-05-03T09:44:15.686Z,14.60
2019-05-03T09:46:46.017Z,14.80
2019-05-03T09:49:18.930Z,14.60
2019-05-03T09:51:49.181Z,14.50
2019-05-03T09:54:34.731Z,14.10
2019-05-03T09:57:05.843Z,13.80
2019-05-03T09:59:36.290Z,13.90
2019-05-03T10:02:06.754Z,13.90
2019-05-03T10:04:37.076Z,14.10
2019-05-03T10:07:11.405Z,14.20
2019-05-03T10:09:41.685Z,14.30
2019-05-03T10:12:16.440Z,14.40
2019-05-03T10:14:46.797Z,14.50
2019-05-03T10:17:38.986Z,14.90
2019-05-03T10:20:11.172Z,15.30
2019-05-03T10:22:41.806Z,15.60
2019-05-03T10:25:12.486Z,15.70
2019-05-03T10:27:46.172Z,15.60
2019-05-03T10:30:25.867Z,15.70
2019-05-03T10:33:15.514Z,15.80
2019-05-03T10:35:46.095Z,15.40
2019-05-03T10:38:16.362Z,15.30
2019-05-03T10:40:46.714Z,15.00
2019-05-03T10:43:17.051Z,14.90
2019-05-03T10:45:47.650Z,14.90
2019-05-03T10:48:17.906Z,14.80
2019-05-03T10:50:50.830Z,14.60
2019-05-03T10:53:25.717Z,14.40
2019-05-03T10:56:22.866Z,14.50
2019-05-03T10:58:57.983Z,14.50
2019-05-03T11:01:48.314Z,14.40
2019-05-03T11:04:18.662Z,14.20
2019-05-03T11:06:49.130Z,13.90
2019-05-03T11:09:19.483Z,13.80
2019-05-03T11:11:49.914Z,13.70
2019-05-03T11:14:20.404Z,13.80
2019-05-03T11:16:50.782Z,14.00
2019-05-03T11:19:21.147Z,14.30
2019-05-03T11:21:51.490Z,14.40
2019-05-03T11:24:23.427Z,14.50
2019-05-03T11:26:55.978Z,14.50
2019-05-03T11:29:27.419Z,14.30
2019-05-03T11:32:11.701Z,14.30
2019-05-03T11:34:51.883Z,14.20
2019-05-03T11:37:50.203Z,14.30
2019-05-03T11:40:20.799Z,14.00
2019-05-03T11:42:55.348Z,14.10
2019-05-03T11:45:25.887Z,14.40
2019-05-03T11:47:56.184Z,14.70
2019-05-03T11:50:26.526Z,14.90
2019-05-03T11:52:56.943Z,14.70
2019-05-03T11:55:27.224Z,14.50
2019-05-03T11:57:57.650Z,14.30
2019-05-03T12:00:35.175Z,14.40
2019-05-03T12:03:11.229Z,14.60
2019-05-03T12:05:43.915Z,14.20
2019-05-03T12:08:14.727Z,14.20
2019-05-03T12:10:55.231Z,14.30
2019-05-03T12:13:42.811Z,14.50
2019-05-03T12:16:19.808Z,14.60
2019-05-03T12:18:52.605Z,14.40
2019-05-03T12:21:19.138Z,14.40
2019-05-03T12:23:50.341Z,14.40
2019-05-03T12:26:21.624Z,14.50
2019-05-03T12:28:52.275Z,14.70
2019-05-03T12:31:33.412Z,14.70
2019-05-03T12:33:55.041Z,14.70
2019-05-03T12:36:26.484Z,14.90
2019-05-03T12:38:56.842Z,14.90
2019-05-03T12:41:28.082Z,15.10
2019-05-03T12:43:58.455Z,15.10
2019-05-03T12:46:28.811Z,15.00
2019-05-03T12:48:59.188Z,15.00
2019-05-03T12:51:29.563Z,15.20
2019-05-03T12:53:59.984Z,15.30
2019-05-03T12:56:32.689Z,15.10
2019-05-03T12:59:07.993Z,15.10
2019-05-03T13:02:12.862Z,14.90
2019-05-03T13:04:44.709Z,14.90
2019-05-03T13:07:26.938Z,15.00
2019-05-03T13:09:57.311Z,14.80
2019-05-03T13:12:29.339Z,14.80
2019-05-03T13:14:59.758Z,14.80
2019-05-03T13:17:39.143Z,14.90
2019-05-03T13:20:12.581Z,14.60
2019-05-03T13:22:45.471Z,14.50
2019-05-03T13:25:15.702Z,14.50
2019-05-03T13:27:46.451Z,14.50
2019-05-03T13:30:17.682Z,14.50
2019-05-03T13:32:47.983Z,14.40
2019-05-03T13:35:18.443Z,14.30
2019-05-03T13:37:48.830Z,14.30
2019-05-03T13:40:19.283Z,14.50
2019-05-03T13:42:57.245Z,14.50
2019-05-03T13:45:21.623Z,14.50
2019-05-03T13:47:52.020Z,14.50
2019-05-03T13:50:24.431Z,14.50
2019-05-03T13:52:55.902Z,14.50
2019-05-03T13:55:26.567Z,14.30
2019-05-03T13:57:56.991Z,14.10
2019-05-03T14:00:27.431Z,13.80
2019-05-03T14:02:57.699Z,13.90
2019-05-03T14:05:28.173Z,13.80
2019-05-03T14:07:58.428Z,13.90
2019-05-03T14:10:28.799Z,14.10
2019-05-03T14:12:59.139Z,14.00
2019-05-03T14:15:29.672Z,13.90
2019-05-03T14:18:00.037Z,13.80
2019-05-03T14:20:47.072Z,13.80
2019-05-03T14:23:17.498Z,13.90
2019-05-03T14:25:47.867Z,13.90
2019-05-03T14:28:18.227Z,13.80
2019-05-03T14:30:48.638Z,13.70
2019-05-03T14:33:18.996Z,13.90
2019-05-03T14:35:49.288Z,13.90
2019-05-03T14:38:19.728Z,13.90
2019-05-03T14:40:50.101Z,13.80
2019-05-03T14:43:20.467Z,13.70
2019-05-03T14:45:50.753Z,13.60
2019-05-03T14:48:21.050Z,13.50
2019-05-03T14:50:51.433Z,13.50
2019-05-03T14:53:21.924Z,13.50
2019-05-03T14:56:07.996Z,13.50
2019-05-03T14:59:09.564Z,13.40
2019-05-03T15:01:45.837Z,13.10
2019-05-03T15:04:16.298Z,13.00
2019-05-03T15:06:46.661Z,13.00
2019-05-03T15:09:19.156Z,13.00
2019-05-03T15:11:49.736Z,13.10
2019-05-03T15:14:20.153Z,12.90
2019-05-03T15:16:50.512Z,12.90
2019-05-03T15:19:20.867Z,13.10
2019-05-03T15:21:51.312Z,13.30
2019-05-03T15:24:21.697Z,13.20
2019-05-03T15:26:52.121Z,13.10
2019-05-03T15:29:24.558Z,13.10
2019-05-03T15:31:55.257Z,13.10
2019-05-03T15:34:25.725Z,13.00
2019-05-03T15:36:56.074Z,12.90
2019-05-03T15:39:26.493Z,13.00
2019-05-03T15:41:56.764Z,13.00
2019-05-03T15:44:54.619Z,13.00
2019-05-03T15:47:32.300Z,13.00
2019-05-03T15:50:04.760Z,13.00
2019-05-03T15:52:35.352Z,12.90
2019-05-03T15:55:06.109Z,12.90
2019-05-03T15:57:36.561Z,12.80
2019-05-03T16:00:11.123Z,12.80
2019-05-03T16:02:42.152Z,12.90
2019-05-03T16:05:12.597Z,12.80
2019-05-03T16:07:44.571Z,12.70
2019-05-03T16:10:16.377Z,12.80
2019-05-03T16:12:46.893Z,12.80
2019-05-03T16:15:17.316Z,12.90
2019-05-03T16:17:47.650Z,13.00
2019-05-03T16:20:18.295Z,12.80
2019-05-03T16:22:48.641Z,12.70
2019-05-03T16:25:19.173Z,12.60
2019-05-03T16:27:55.366Z,12.40
2019-05-03T16:30:36.840Z,12.60
2019-05-03T16:33:07.227Z,12.50
2019-05-03T16:35:37.960Z,12.40
2019-05-03T16:38:08.452Z,12.40
2019-05-03T16:40:38.965Z,12.50
2019-05-03T16:43:09.242Z,12.50
2019-05-03T16:45:40.329Z,12.40
2019-05-03T16:48:10.753Z,12.30
2019-05-03T16:50:41.110Z,12.10
2019-05-03T16:53:11.758Z,12.10
2019-05-03T16:55:42.149Z,12.00
2019-05-03T16:58:16.481Z,11.90
2019-05-03T17:00:46.438Z,11.90
2019-05-03T17:03:20.137Z,11.90
2019-05-03T17:06:12.300Z,12.00
2019-05-03T17:09:01.678Z,11.90
2019-05-03T17:11:34.703Z,11.90
2019-05-03T17:14:05.389Z,11.80
2019-05-03T17:16:35.765Z,11.70
2019-05-03T17:19:06.293Z,11.70
2019-05-03T17:21:36.647Z,11.60
2019-05-03T17:24:07.065Z,11.60
2019-05-03T17:26:37.433Z,11.60
2019-05-03T17:29:07.791Z,11.60
2019-05-03T17:31:38.213Z,11.60
2019-05-03T17:34:08.517Z,11.60
2019-05-03T17:36:39.860Z,11.60
2019-05-03T17:39:15.077Z,11.60
2019-05-03T17:41:54.690Z,11.50
2019-05-03T17:44:29.293Z,11.50
2019-05-03T17:46:59.693Z,11.50
2019-05-03T17:49:30.025Z,11.40
2019-05-03T17:52:22.646Z,11.40
2019-05-03T17:55:12.149Z,11.30
2019-05-03T17:58:07.501Z,11.20
2019-05-03T18:00:56.286Z,11.20
2019-05-03T18:03:29.269Z,11.20
2019-05-03T18:06:05.285Z,11.10
2019-05-03T18:08:55.088Z,11.00
2019-05-03T18:11:34.707Z,10.90
2019-05-03T18:14:05.594Z,11.00
2019-05-03T18:16:36.232Z,10.90
2019-05-03T18:19:06.630Z,10.80
2019-05-03T18:21:37.069Z,10.80
2019-05-03T18:24:07.394Z,10.70
2019-05-03T18:26:37.678Z,10.70
2019-05-03T18:29:08.115Z,10.60
2019-05-03T18:31:38.582Z,10.60
2019-05-03T18:34:19.085Z,10.50
2019-05-03T18:36:40.971Z,10.60
2019-05-03T18:39:11.502Z,10.50
2019-05-03T18:41:41.863Z,10.60
2019-05-03T18:44:23.986Z,10.50
2019-05-03T18:46:59.851Z,10.50
2019-05-03T18:49:31.499Z,10.40
2019-05-03T18:52:04.352Z,10.30
2019-05-03T18:54:35.112Z,10.20
2019-05-03T18:57:05.560Z,10.20
2019-05-03T18:59:35.999Z,10.20
2019-05-03T19:02:06.503Z,10.30
2019-05-03T19:04:55.882Z,10.30
2019-05-03T19:07:49.174Z,10.10
2019-05-03T19:10:38.758Z,10.00
2019-05-03T19:13:15.059Z,9.90
2019-05-03T19:15:45.584Z,10.00
2019-05-03T19:18:36.002Z,9.90
2019-05-03T19:21:06.350Z,9.90
2019-05-03T19:23:36.826Z,9.80
2019-05-03T19:26:07.247Z,9.80
2019-05-03T19:28:37.627Z,9.80
2019-05-03T19:31:08.242Z,9.80
2019-05-03T19:33:38.714Z,9.80
2019-05-03T19:36:09.151Z,9.80
2019-05-03T19:38:39.603Z,9.70
2019-05-03T19:41:09.947Z,9.70
2019-05-03T19:43:40.364Z,9.70
2019-05-03T19:46:11.715Z,9.80
2019-05-03T19:48:42.033Z,9.70
2019-05-03T19:51:12.321Z,9.70
2019-05-03T19:53:49.967Z,9.70
2019-05-03T19:56:21.431Z,9.70
2019-05-03T19:58:55.666Z,9.70
2019-05-03T20:01:36.527Z,9.70
2019-05-03T20:04:18.788Z,9.70
2019-05-03T20:06:58.515Z,9.70
2019-05-03T20:09:29.260Z,9.60
2019-05-03T20:11:59.667Z,9.60
2019-05-03T20:14:29.980Z,9.60
2019-05-03T20:17:00.391Z,9.60
2019-05-03T20:19:30.939Z,9.50
2019-05-03T20:22:01.308Z,9.40
2019-05-03T20:24:31.615Z,9.40
2019-05-03T20:27:02.038Z,9.40
2019-05-03T20:29:34.390Z,9.40
2019-05-03T20:32:05.848Z,9.30
2019-05-03T20:34:36.669Z,9.30
2019-05-03T20:37:07.139Z,9.30
2019-05-03T20:39:37.435Z,9.30
2019-05-03T20:42:07.952Z,9.20
2019-05-03T20:45:05.229Z,9.20
2019-05-03T20:47:45.360Z,9.30
2019-05-03T20:50:15.790Z,9.30
2019-05-03T20:52:47.318Z,9.20
2019-05-03T20:55:17.783Z,9.10
2019-05-03T20:57:48.220Z,9.20
2019-05-03T21:00:22.348Z,9.20
2019-05-03T21:02:56.617Z,9.10
2019-05-03T21:05:30.950Z,9.00
2019-05-03T21:07:56.803Z,9.00
2019-05-03T21:10:27.161Z,8.90
2019-05-03T21:12:57.431Z,9.00
2019-05-03T21:15:37.120Z,8.90
2019-05-03T21:18:15.205Z,8.80
2019-05-03T21:20:50.282Z,8.80
2019-05-03T21:23:21.751Z,8.80
2019-05-03T21:26:12.596Z,8.70
2019-05-03T21:28:36.219Z,8.70
2019-05-03T21:31:06.747Z,8.60
2019-05-03T21:33:37.044Z,8.70
2019-05-03T21:36:07.443Z,8.50
2019-05-03T21:38:37.743Z,8.50
2019-05-03T21:41:08.072Z,8.40
2019-05-03T21:43:38.500Z,8.40
2019-05-03T21:46:25.585Z,8.30
2019-05-03T21:49:00.219Z,8.30
2019-05-03T21:51:30.551Z,8.40
2019-05-03T21:54:01.380Z,8.30
2019-05-03T21:56:31.744Z,8.20
2019-05-03T21:59:02.031Z,8.20
2019-05-03T22:01:34.945Z,8.20
2019-05-03T22:04:05.095Z,8.20
2019-05-03T22:06:35.432Z,8.30
2019-05-03T22:09:07.456Z,8.30
2019-05-03T22:11:39.307Z,8.30
2019-05-03T22:14:15.271Z,8.10
2019-05-03T22:17:19.807Z,8.10
2019-05-03T22:19:54.314Z,8.00
2019-05-03T22:22:36.734Z,7.90
2019-05-03T22:25:07.992Z,8.00
2019-05-03T22:27:42.858Z,8.10
2019-05-03T22:30:26.815Z,8.10
2019-05-03T22:32:56.564Z,8.20
2019-05-03T22:35:26.839Z,8.20
2019-05-03T22:37:57.196Z,8.30
2019-05-03T22:40:27.488Z,8.20
2019-05-03T22:42:57.777Z,8.20
2019-05-03T22:45:28.187Z,8.10
2019-05-03T22:47:58.476Z,8.10
2019-05-03T22:50:28.732Z,8.20
2019-05-03T22:52:59.096Z,8.00
2019-05-03T22:55:29.483Z,7.90
2019-05-03T22:57:59.980Z,7.90
2019-05-03T23:00:31.053Z,7.80
2019-05-03T23:03:01.532Z,7.80
2019-05-03T23:05:31.892Z,7.80
2019-05-03T23:08:02.172Z,7.70
2019-05-03T23:10:34.718Z,7.70
2019-05-03T23:13:05.062Z,7.70
2019-05-03T23:15:35.470Z,7.70
2019-05-03T23:18:05.838Z,7.60
2019-05-03T23:20:42.600Z,7.60
2019-05-03T23:23:31.907Z,7.60
2019-05-03T23:26:04.415Z,7.50
2019-05-03T23:28:35.639Z,7.50
2019-05-03T23:31:06.207Z,7.60
2019-05-03T23:33:36.479Z,7.70
2019-05-03T23:36:06.951Z,7.70
2019-05-03T23:38:37.364Z,7.50
2019-05-03T23:41:07.728Z,7.30
2019-05-03T23:43:38.008Z,7.40
2019-05-03T23:46:08.895Z,7.30
2019-05-03T23:48:39.316Z,7.20
2019-05-03T23:51:12.188Z,7.20
2019-05-03T23:53:44.591Z,7.10
2019-05-03T23:56:19.348Z,7.00
2019-05-03T23:58:49.708Z,7.00
